7º FECHA - OBERA

Avatar de Usuario
fvizcay
Mensajes: 6005
Registrado: 24 Oct 2016, 11:24
Ubicación: Pigüé

7º FECHA - OBERA

Mensaje por fvizcay » 03 Ago 2019, 11:32

1° ENTRENAMIENTO C2
Puesto Nro Piloto Marca Vtas Tiempo Dif.
1 69 Agustin HERRERA RENAULT CLIO 10 1:58.657
2 43 Walter LOPEZ NISSAN MARCH 11 1:58.830 0.173
3 6 Miguel CIAURRO VW TREND 11 1:59.007 0.350
4 11 Gaston IANSA FIESTA KINETIC 10 1:59.291 0.634
5 14 Ever FRANETOVICH FIAT PALIO 9 1:59.424 0.767
6 1 Nicolas POSCO FIESTA KINETIC 9 1:59.475 0.818
7 120 Geronimo NUNEZ NISSAN MARCH 12 1:59.502 0.845
8 5 Gaston GRASSO TOYOTA ETIOS 11 1:59.672 1.015
9 124 Jorge POSSIEL TOYOTA ETIOS 6 1:59.851 1.194
10 36 Alejo BORGIANI VW TREND 10 2:00.113 1.456
11 18 Marcos FERNANDEZ NISSAN MARCH 12 2:00.214 1.557
12 111 Joel GASSMANN FIESTA KINETIC 10 2:00.318 1.661
13 63 Renzo TESTA FIAT PALIO 10 2:00.333 1.676
14 32 Sergio FERNANDEZ NISSAN MARCH 9 2:00.368 1.711
15 49 Juan Carlos POLINI RENAULT CLIO 10 2:00.554 1.897
16 54 Facundo ROTONDO FIESTA KINETIC 10 2:00.584 1.927
17 39 Alejandro VALDERREY FIAT PALIO 9 2:00.681 2.024
18 141 Juan Pablo ROTONDO FIESTA KINETIC 11 2:00.695 2.038
19 150 Damian MARKEL TOYOTA ETIOS 9 2:00.767 2.110
20 25 Sebastian PEREZ CHEVROLET ONIX 9 2:00.814 2.157
21 21 Gabriel SCORDIA FIESTA KINETIC 9 2:00.944 2.287
22 26 Damian KIRSTEIN PEUGEOT 208 10 2:00.981 2.324
23 3 Julian LEPPHAILLE TOYOTA ETIOS 10 2:01.147 2.490
24 73 Lucas BAGNERA TOYOTA ETIOS 8 2:01.149 2.492
25 13 Joel BORGOBELLO VW TREND 10 2:01.231 2.574
26 65 Fernando GOMEZ FREDES PEUGEOT 208 9 2:01.774 3.117
27 78 Alejandro WEIMANN TOYOTA ETIOS 8 2:02.499 3.842

Avatar de Usuario
fvizcay
Mensajes: 6005
Registrado: 24 Oct 2016, 11:24
Ubicación: Pigüé

Re: 7º FECHA - OBERA

Mensaje por fvizcay » 03 Ago 2019, 11:32

2° ENTRENAMIENTO C2
Puesto Nro Piloto Marca Vtas Tiempo Dif.
1 43 Walter LOPEZ NISSAN MARCH 9 1:58.304
2 18 Marcos FERNANDEZ NISSAN MARCH 11 1:58.565 0.261
3 1 Nicolas POSCO FIESTA KINETIC 9 1:58.613 0.309
4 63 Renzo TESTA FIAT PALIO 8 1:58.627 0.323
5 14 Ever FRANETOVICH FIAT PALIO 7 1:58.681 0.377
6 5 Gaston GRASSO TOYOTA ETIOS 11 1:58.772 0.468
7 124 Jorge POSSIEL TOYOTA ETIOS 7 1:58.787 0.483
8 73 Lucas BAGNERA TOYOTA ETIOS 8 1:58.901 0.597
9 21 Gabriel SCORDIA FIESTA KINETIC 8 1:58.909 0.605
10 6 Miguel CIAURRO VW TREND 9 1:59.026 0.722
11 13 Joel BORGOBELLO VW TREND 9 1:59.068 0.764
12 3 Julian LEPPHAILLE TOYOTA ETIOS 10 1:59.267 0.963
13 11 Gaston IANSA FIESTA KINETIC 7 1:59.385 1.081
14 69 Agustin HERRERA RENAULT CLIO 10 1:59.456 1.152
15 25 Sebastian PEREZ CHEVROLET ONIX 10 1:59.537 1.233
16 49 Juan Carlos POLINI RENAULT CLIO 11 1:59.674 1.370
17 111 Joel GASSMANN FIESTA KINETIC 9 1:59.817 1.513
18 120 Geronimo NU�EZ NISSAN MARCH 11 1:59.827 1.523
19 36 Alejo BORGIANI VW TREND 10 1:59.864 1.560
20 141 Juan Pablo ROTONDO FIESTA KINETIC 11 1:59.882 1.578
21 32 Sergio FERNANDEZ NISSAN MARCH 7 1:59.985 1.681
22 54 Facundo ROTONDO FIESTA KINETIC 10 2:00.024 1.720
23 26 Damian KIRSTEIN PEUGEOT 208 8 2:00.059 1.755
24 65 Fernando GOMEZ FREDES PEUGEOT 208 8 2:00.063 1.759
25 39 Alejandro VALDERREY FIAT PALIO 8 2:00.119 1.815
26 78 Alejandro WEIMANN TOYOTA ETIOS 9 2:02.077 3.773

Sin Tiempo Auto Nro. 150

Avatar de Usuario
fvizcay
Mensajes: 6005
Registrado: 24 Oct 2016, 11:24
Ubicación: Pigüé

Re: 7º FECHA - OBERA

Mensaje por fvizcay » 03 Ago 2019, 11:32

GENERAL ENTRENAMIENTO C2
Puesto Nro Piloto Marca Vtas Tiempo Dif.
1 43 Walter LOPEZ NISSAN MARCH 1:58.304
2 18 Marcos FERNANDEZ NISSAN MARCH 1:58.565 0.261
3 1 Nicolas POSCO FIESTA KINETIC 1:58.613 0.309
4 63 Renzo TESTA FIAT PALIO 1:58.627 0.323
5 69 Agustin HERRERA RENAULT CLIO 1:58.657 0.353
6 14 Ever FRANETOVICH FIAT PALIO 1:58.681 0.377
7 5 Gaston GRASSO TOYOTA ETIOS 1:58.772 0.468
8 124 Jorge POSSIEL TOYOTA ETIOS 1:58.787 0.483
9 73 Lucas BAGNERA TOYOTA ETIOS 1:58.901 0.597
10 21 Gabriel SCORDIA FIESTA KINETIC 1:58.909 0.605
11 6 Miguel CIAURRO VW TREND 1:59.007 0.703
12 13 Joel BORGOBELLO VW TREND 1:59.068 0.764
13 3 Julian LEPPHAILLE TOYOTA ETIOS 1:59.267 0.963
14 11 Gaston IANSA FIESTA KINETIC 1:59.291 0.987
15 120 Geronimo NU�EZ NISSAN MARCH 1:59.502 1.198
16 25 Sebastian PEREZ CHEVROLET ONIX 1:59.537 1.233
17 49 Juan Carlos POLINI RENAULT CLIO 1:59.674 1.370
18 111 Joel GASSMANN FIESTA KINETIC 1:59.817 1.513
19 36 Alejo BORGIANI VW TREND 1:59.864 1.560
20 141 Juan Pablo ROTONDO FIESTA KINETIC 1:59.882 1.578
21 32 Sergio FERNANDEZ NISSAN MARCH 1:59.985 1.681
22 54 Facundo ROTONDO FIESTA KINETIC 2:00.024 1.720
23 26 Damian KIRSTEIN PEUGEOT 208 2:00.059 1.755
24 65 Fernando GOMEZ FREDES PEUGEOT 208 2:00.063 1.759
25 39 Alejandro VALDERREY FIAT PALIO 2:00.119 1.815
26 150 Dami�n MARKEL TOYOTA ETIOS 2:00.767 2.463
27 78 Alejandro WEIMANN TOYOTA ETIOS 2:02.077 3.773

Avatar de Usuario
fvizcay
Mensajes: 6005
Registrado: 24 Oct 2016, 11:24
Ubicación: Pigüé

Re: 7º FECHA - OBERA

Mensaje por fvizcay » 03 Ago 2019, 11:32

1° CLASIFICACIÓN C2
Puesto Nro Piloto Marca Vtas Tiempo Dif.
1 43 Walter LOPEZ NISSAN MARCH 1 1:57.925
2 69 Agustin HERRERA RENAULT CLIO 3 1:58.135 0.210
3 14 Ever FRANETOVICH FIAT PALIO 3 1:58.159 0.234
4 18 Marcos FERNANDEZ NISSAN MARCH 3 1:58.263 0.338
5 11 Gaston IANSA FIESTA KINETIC 3 1:58.343 0.418
6 1 Nicolas POSCO FIESTA KINETIC 3 1:58.498 0.573
7 120 Geronimo NUNEZ NISSAN MARCH 3 1:58.528 0.603
8 111 Joel GASSMANN FIESTA KINETIC 3 1:58.552 0.627
9 124 Jorge POSSIEL TOYOTA ETIOS 4 1:58.715 0.790
10 25 Sebastian PEREZ CHEVROLET ONIX 4 1:58.872 0.947
11 3 Julian LEPPHAILLE TOYOTA ETIOS 2 1:58.977 1.052
12 13 Joel BORGOBELLO VW TREND 3 1:59.037 1.112
13 73 Lucas BAGNERA TOYOTA ETIOS 4 1:59.098 1.173
14 5 Gaston GRASSO TOYOTA ETIOS 3 1:59.133 1.208
15 21 Gabriel SCORDIA FIESTA KINETIC 3 1:59.134 1.209
16 26 Damian KIRSTEIN PEUGEOT 208 3 1:59.197 1.272
17 39 Alejandro VALDERREY FIAT PALIO 4 1:59.213 1.288
18 36 Alejo BORGIANI VW TREND 3 1:59.290 1.365
19 63 Renzo TESTA FIAT PALIO 4 1:59.304 1.379
20 150 Damian MARKEL TOYOTA ETIOS 4 1:59.349 1.424
21 6 Miguel CIAURRO VW TREND 3 1:59.627 1.702
22 78 Alejandro WEIMANN TOYOTA ETIOS 3 2:00.093 2.168
23 54 Facundo ROTONDO FIESTA KINETIC 4 2:00.155 2.230
24 65 Fernando GOMEZ FREDES PEUGEOT 208 4 2:00.621 2.696
25 49 Juan Carlos POLINI RENAULT CLIO 4 2:00.666 2.741
26 141 Juan Pablo ROTONDO FIESTA KINETIC 1 3:42.044 1:44.119

Sin tiempos Auto Nro. 32

Avatar de Usuario
fvizcay
Mensajes: 6005
Registrado: 24 Oct 2016, 11:24
Ubicación: Pigüé

Re: 7º FECHA - OBERA

Mensaje por fvizcay » 03 Ago 2019, 11:33

A partir de esta fecha, la Clase 2 vuelve a tener dos clasificaciones.

Avatar de Usuario
fvizcay
Mensajes: 6005
Registrado: 24 Oct 2016, 11:24
Ubicación: Pigüé

Re: 7º FECHA - OBERA

Mensaje por fvizcay » 03 Ago 2019, 11:33

1° ENTRENAMIENTO C3
Puesto Nro Piloto Marca Vtas Tiempo Dif.
1 8 Fabian YANNANTUONI FIAT TIPO 8 1:54.590
2 68 Julian SANTERO FORD FOCUS 8 1:55.023 0.433
3 1 Leonel PERNIA VW VENTO 8 1:55.369 0.779
4 48 Manuel LUQUE CHEVROLET CRUZE 10 1:55.461 0.871
5 100 Carlos OKULOVICH NEW CIVIC 8 1:55.644 1.054
6 2 Facundo CHAPUR FORD FOCUS 9 1:55.675 1.085
7 9 Manuel URCERA NEW CIVIC 8 1:55.711 1.121
8 138 Luis Jose DI PALMA PEUGEOT 408 8 1:55.963 1.373
9 19 Leonel LARRAURI NEW CIVIC 11 1:56.235 1.645
10 18 Matias MU�OZ MARCHESI FIAT TIPO 6 1:56.307 1.717
11 77 Mariano PERNIA CHEVROLET CRUZE 9 1:56.424 1.834
12 22 Adrian PERCAZ FORD FOCUS 12 1:56.426 1.836
13 23 Ernesto BESSONE TOYOTA COROLLA 8 1:56.477 1.887
14 74 Lucas VICINO FORD FOCUS 12 1:56.484 1.894
15 118 Antonino GARCIA FORD FOCUS 9 1:56.571 1.981
16 21 Leandro CARDUCCI FORD FOCUS 8 1:56.617 2.027
17 11 Jeronimo TETI CHEVROLET CRUZE 9 1:56.639 2.049
18 92 Rudi BUNDZIAK C4 LOUNGE 8 1:56.670 2.080
19 59 Emmanuel CACERES FORD FOCUS 9 1:56.686 2.096
20 29 Juan P. ROSSOTTI VW VENTO 9 1:57.156 2.566
21 15 Adrian CHIRIANO FORD FOCUS 7 1:57.351 2.761
22 69 Esteban CISTOLA FORD FOCUS 8 1:57.398 2.808
23 5 Emanuel MORIATIS FORD FOCUS 7 1:57.591 3.001
24 20 Juan PIPKIN CHEVROLET CRUZE 8 1:57.801 3.211
25 25 Matias COHEN FORD FOCUS 12 1:58.345 3.755
26 123 Matias MENVIELLE CHEVROLET CRUZE 10 1:58.365 3.775
27 169 Pedro GENTILE HYUNDAI VELOSTER 10 2:00.163 5.573
28 82 Mauricio LAMBIRIS TOYOTA COROLLA 1 3:47.039 1:52.449

Avatar de Usuario
fvizcay
Mensajes: 6005
Registrado: 24 Oct 2016, 11:24
Ubicación: Pigüé

Re: 7º FECHA - OBERA

Mensaje por fvizcay » 03 Ago 2019, 11:41

Si bien Oberá es una fecha muy costosa por su lejania, es la primera vez en muchismos años, es mas, me animaria a decir que practicamente en lo que va des este milenio, que el parque del TN es menor a 60 autos.
Sigue siendo un buen parque, y mas en estos tiempos dodne esta todo tan dificil, pero la realidad es que de a poco viene bajando. Yo creo que el TN va a tener que tomar algunas medidas.
EL Turismo Pista es una categoria similar y presenta un parque muy superior, con un costo muchisimo mas chico. Es evidente que todos los años de bonanza en cuanto a cantidad de autos y espectaculos, hicieron que APAT encareciera algunos servicios acrecentado su negocio, pero ahora es tiempo de retomar viejas recetas...

Avatar de Usuario
RobertoLP
Mensajes: 2782
Registrado: 24 Oct 2016, 20:25
Ubicación: Santa Rosa La Pampa
Contactar:

Re: 7º FECHA - OBERA

Mensaje por RobertoLP » 04 Ago 2019, 12:00

Imagen

1 serie

Pos Piloto Marca Tiempo Dif.

1 Carlos OKULOVICH NEW CIVIC 1:56.409
2 Julian SANTERO FORD FOCUS 1:56.863 2.571
3 Manuel LUQUE CHEVROLET CRUZE 1:56.603 2.767
4 Rudi BUNDZIAK C4 LOUNGE 1:56.833 3.069
5 Antonino GARCIA FORD FOCUS 1:56.427 3.981
6 Facundo CHAPUR FORD FOCUS 1:57.549 9.563
7 Leandro CARDUCCI FORD FOCUS 1:58.306 13.679
8 Ernesto BESSONE TOYOTA COROLLA 1:58.298 15.350
9 Jeronimo TETI CHEVROLET CRUZE 1:58.322 15.737
10 Matias MENVIELLE CHEVROLET CRUZE 1:58.533 15.965
11 Mariano PERNIA CHEVROLET CRUZE 1:58.165 16.310
12 Leonel LARRAURI NEW CIVIC 1:58.741 16.868
13 Matias MUÑOZ MARCHESI FIAT TIPO 1:58.156 19.451
14 Matias COHEN FORD FOCUS 1:59.696 33.288


Imagen


2ª serie

Pos Piloto Marca Tiempo Dif.

1 Leonel PERNIA VW VENTO 1:56.287
2 Emmanuel CACERES FORD FOCUS 1:57.057 2.714
3 Fabian YANNANTUONI FIAT TIPO 1:57.113 4.631
4 Juan PIPKIN CHEVROLET CRUZE 1:57.311 5.154
5 Manuel URCERA NEW CIVIC 1:57.163 5.373
6 Lucas VICINO FORD FOCUS 1:57.174 6.341
7 Emanuel MORIATIS FORD FOCUS 1:57.657 8.147
8 Mauricio LAMBIRIS TOYOTA COROLLA 1:57.699 9.627
9 Esteban CISTOLA FORD FOCUS 1:58.141 10.896
10 Adrian PERCAZ FORD FOCUS 1:57.993 13.351
11 Adrian CHIRIANO FORD FOCUS 1:58.551 14.268
12 Juan P. ROSSOTTI VW VENTO 1:58.460 15.673
13 Pedro GENTILE HYUNDAI VELOSTER 1:58.763 16.456

Avatar de Usuario
ferq
Mensajes: 55
Registrado: 24 Oct 2016, 09:18

Re: 7º FECHA - OBERA

Mensaje por ferq » 04 Ago 2019, 12:26

Hola! Alguien tiene algún link para ver en vivo las Finales??

Avatar de Usuario
JUAN EDUARDO
Mensajes: 875
Registrado: 22 Oct 2016, 14:37
Ubicación: Córdoba

Re: 7º FECHA - OBERA

Mensaje por JUAN EDUARDO » 04 Ago 2019, 15:42

Okulovich...no podes durar dos curvas en tu casa...
Imagen

Responder